Time;durP1;ratioP1;P1;durP2;ratioP2;P2;SDS_P1;SDS_P2;PMS_P1;PMS_P2;Temp;Humidity;BMP_temperature;BMP_pressure;BME280_temperature;BME280_humidity;BME280_pressure;Samples;Min_cycle;Max_cycle;Signal;HPM_P1;HPM_P2
2024/01/23 00:01:49;;;;;;;4.40;0.93;;;9.00;99.90;;;8.91;100.00;101191.09;5244468;28;20515;-47
2024/01/23 00:04:21;;;;;;;9.40;1.80;;;9.00;99.90;;;8.94;100.00;101192.97;5246236;28;21098;-47
2024/01/23 00:06:54;;;;;;;4.88;1.08;;;9.00;99.90;;;8.93;100.00;101194.69;5261308;28;20098;-47
2024/01/23 00:09:28;;;;;;;5.65;1.13;;;9.00;99.90;;;8.95;100.00;101182.66;5238976;28;20048;-47
2024/01/23 00:12:02;;;;;;;2.58;0.93;;;9.00;99.90;;;8.95;100.00;101186.97;5236478;28;20041;-46
2024/01/23 00:14:34;;;;;;;4.25;0.70;;;9.00;99.90;;;8.91;100.00;101182.41;5237805;28;20071;-47
2024/01/23 00:17:06;;;;;;;9.25;1.15;;;9.00;99.90;;;8.88;100.00;101170.19;5244171;28;20040;-47
2024/01/23 00:19:39;;;;;;;11.88;1.02;;;9.00;99.90;;;8.85;100.00;101164.81;5236845;28;20059;-47
2024/01/23 00:22:11;;;;;;;2.58;1.02;;;9.00;99.90;;;8.84;100.00;101178.63;5243340;28;20068;-47
2024/01/23 00:24:45;;;;;;;10.90;1.15;;;9.00;99.90;;;8.83;100.00;101182.06;5240727;28;20048;-47
2024/01/23 00:27:17;;;;;;;4.55;0.93;;;8.90;99.90;;;8.82;100.00;101180.28;5243362;28;20053;-46
2024/01/23 00:29:50;;;;;;;8.30;1.00;;;8.90;99.90;;;8.84;100.00;101178.63;5240398;28;20051;-47
2024/01/23 00:32:23;;;;;;;5.70;0.80;;;8.90;99.90;;;8.89;100.00;101186.66;5243595;28;20057;-46
2024/01/23 00:34:56;;;;;;;4.22;0.85;;;9.00;99.90;;;8.91;100.00;101198.91;5239515;28;20051;-46
2024/01/23 00:37:28;;;;;;;6.10;0.95;;;9.00;99.90;;;8.94;100.00;101211.19;5243936;28;20040;-47
2024/01/23 00:40:03;;;;;;;6.00;1.05;;;9.00;99.90;;;8.95;100.00;101221.66;5233811;28;20048;-48
2024/01/23 00:42:35;;;;;;;11.63;1.40;;;9.00;99.90;;;8.97;100.00;101224.31;5258608;28;20044;-47
2024/01/23 00:45:08;;;;;;;4.75;0.82;;;9.00;99.90;;;8.95;100.00;101229.44;5242650;28;20044;-46
2024/01/23 00:47:41;;;;;;;7.25;1.13;;;9.00;99.90;;;8.94;100.00;101231.97;5238533;28;20577;-46
2024/01/23 00:50:13;;;;;;;4.85;1.00;;;9.00;99.90;;;8.91;100.00;101227.50;5239578;28;20052;-46
2024/01/23 00:52:46;;;;;;;8.40;1.17;;;9.00;99.90;;;8.93;100.00;101222.38;5231234;28;20056;-47
2024/01/23 00:55:19;;;;;;;6.93;0.95;;;9.00;99.90;;;8.93;100.00;101230.16;5241278;28;20048;-48
2024/01/23 00:57:52;;;;;;;2.63;1.10;;;9.00;99.90;;;8.93;100.00;101231.09;5242258;28;20045;-47
2024/01/23 01:00:24;;;;;;;5.53;1.15;;;9.00;99.90;;;8.93;100.00;101235.38;5240077;28;20470;-47
2024/01/23 01:02:57;;;;;;;11.25;1.33;;;9.00;99.90;;;8.94;100.00;101244.97;5256033;28;20053;-47
2024/01/23 01:05:29;;;;;;;9.95;0.77;;;9.00;99.90;;;8.93;100.00;101257.09;5239212;28;20051;-47
2024/01/23 01:08:01;;;;;;;3.55;0.77;;;9.00;99.90;;;8.91;100.00;101268.22;5243620;28;20036;-47
2024/01/23 01:10:35;;;;;;;7.32;1.10;;;9.00;99.90;;;8.90;100.00;101266.44;5249853;28;20048;-46
2024/01/23 01:13:09;;;;;;;8.48;1.30;;;9.00;99.90;;;8.90;100.00;101282.03;5239084;28;20053;-47
2024/01/23 01:15:41;;;;;;;3.20;0.98;;;9.00;99.90;;;8.88;100.00;101286.28;5243363;28;20135;-47
2024/01/23 01:18:16;;;;;;;9.60;1.25;;;8.90;99.90;;;8.84;100.00;101292.13;5239729;28;20052;-45
2024/01/23 01:20:49;;;;;;;5.40;1.00;;;9.00;99.90;;;8.83;100.00;101299.03;5236366;28;20051;-47
2024/01/23 01:23:21;;;;;;;6.82;0.90;;;8.90;99.90;;;8.81;100.00;101303.28;5245025;28;20139;-47
2024/01/23 01:25:55;;;;;;;7.57;1.23;;;8.90;99.90;;;8.77;100.00;101296.13;5229746;28;20056;-46
2024/01/23 01:28:28;;;;;;;2.63;0.93;;;8.90;99.90;;;8.76;100.00;101328.16;5232525;28;20045;-47
2024/01/23 01:31:00;;;;;;;7.70;1.10;;;8.90;99.90;;;8.77;100.00;101334.25;5241593;28;20056;-47
2024/01/23 01:33:32;;;;;;;4.47;0.68;;;8.90;99.90;;;8.61;100.00;101336.06;5234198;28;20048;-47
2024/01/23 01:36:07;;;;;;;6.22;1.15;;;8.80;99.90;;;8.48;100.00;101336.25;5239060;28;20060;-47
2024/01/23 01:38:39;;;;;;;8.18;1.17;;;8.70;99.90;;;8.37;100.00;101340.00;5239857;28;20056;-47
2024/01/23 01:41:13;;;;;;;7.15;1.23;;;8.60;99.90;;;8.27;100.00;101337.69;5236558;28;20080;-47
2024/01/23 01:43:45;;;;;;;8.73;1.20;;;8.50;99.90;;;8.15;100.00;101343.16;5243636;28;20051;-46
2024/01/23 01:46:23;;;;;;;4.10;1.13;;;8.40;99.90;;;8.14;100.00;101350.00;5237907;28;20131;-46
2024/01/23 01:48:56;;;;;;;4.43;1.05;;;8.30;99.90;;;8.12;100.00;101350.75;5239608;28;20559;-47
2024/01/23 01:51:30;;;;;;;6.80;0.88;;;8.30;99.90;;;8.08;100.00;101351.38;5244007;28;20053;-47
2024/01/23 01:54:04;;;;;;;2.70;1.10;;;8.30;99.90;;;8.05;100.00;101359.91;5241350;28;20052;-47
2024/01/23 01:56:39;;;;;;;4.85;1.02;;;8.20;99.90;;;8.03;100.00;101353.75;5241970;28;20053;-47
2024/01/23 01:59:11;;;;;;;;;;;8.20;99.90;;;8.01;100.00;101367.44;5241851;28;20497;-46
2024/01/23 02:01:44;;;;;;;11.90;1.48;;;8.20;99.90;;;8.03;100.00;101363.25;5240932;28;20395;-48
2024/01/23 02:04:20;;;;;;;5.53;1.77;;;8.20;99.90;;;8.04;100.00;101375.41;5242255;28;20059;-47
2024/01/23 02:06:53;;;;;;;7.85;1.17;;;8.20;99.90;;;8.03;100.00;101376.25;5234682;28;20586;-47
2024/01/23 02:09:25;;;;;;;12.63;1.65;;;8.20;99.90;;;8.01;100.00;101370.94;5242615;28;20044;-46
2024/01/23 02:12:01;;;;;;;9.27;1.00;;;8.20;99.90;;;8.01;100.00;101370.94;5255800;28;20060;-47
2024/01/23 02:14:35;;;;;;;11.65;1.58;;;8.20;99.90;;;8.00;100.00;101363.06;5239071;28;20049;-47
2024/01/23 02:17:07;;;;;;;3.47;0.98;;;8.20;99.90;;;8.00;100.00;101373.47;5235299;28;20139;-46
2024/01/23 02:19:40;;;;;;;3.03;1.10;;;8.20;99.90;;;8.00;100.00;101368.25;5240242;28;20101;-47
2024/01/23 02:22:12;;;;;;;6.47;1.02;;;8.20;99.90;;;8.02;100.00;101377.03;5237012;28;20519;-47
2024/01/23 02:24:46;;;;;;;4.88;0.80;;;8.20;99.90;;;8.04;100.00;101378.03;5241783;28;20063;-46
2024/01/23 02:27:19;;;;;;;4.70;1.10;;;8.20;99.90;;;8.04;100.00;101380.63;5241492;28;20059;-47
2024/01/23 02:29:51;;;;;;;6.38;1.00;;;8.20;99.90;;;8.02;100.00;101403.00;5230935;28;20064;-47
2024/01/23 02:32:23;;;;;;;5.90;1.02;;;8.20;99.90;;;7.97;100.00;101407.94;5236483;28;20044;-46
2024/01/23 02:34:56;;;;;;;4.95;1.13;;;8.20;99.90;;;7.95;100.00;101422.53;5235061;28;20045;-47
2024/01/23 02:37:28;;;;;;;4.18;1.27;;;8.20;99.90;;;7.98;100.00;101429.59;5233287;28;20053;-47
2024/01/23 02:40:02;;;;;;;6.78;1.48;;;8.20;99.90;;;7.98;100.00;101432.22;5238721;28;20221;-46
2024/01/23 02:42:35;;;;;;;6.47;1.27;;;8.20;99.90;;;7.94;100.00;101438.03;5244766;28;20454;-46
2024/01/23 02:45:08;;;;;;;6.60;1.50;;;8.10;99.90;;;7.88;100.00;101442.06;5246619;28;20514;-46
2024/01/23 02:47:40;;;;;;;6.25;1.08;;;8.10;99.90;;;7.83;100.00;101456.50;5244497;28;20047;-47
2024/01/23 02:50:13;;;;;;;11.40;1.42;;;8.10;99.90;;;7.82;100.00;101456.41;5241725;28;20094;-47
2024/01/23 02:52:45;;;;;;;6.78;1.42;;;8.10;99.90;;;7.78;100.00;101470.91;5240302;28;20441;-47
2024/01/23 02:55:19;;;;;;;5.10;1.05;;;8.00;99.90;;;7.74;100.00;101470.66;5242819;28;20049;-47
2024/01/23 02:57:52;;;;;;;4.30;1.25;;;8.00;99.90;;;7.74;100.00;101484.53;5239825;28;20041;-47
2024/01/23 03:00:24;;;;;;;5.22;1.02;;;7.90;99.90;;;7.76;100.00;101493.31;5242533;28;20494;-47
2024/01/23 03:02:57;;;;;;;4.90;1.10;;;8.00;99.90;;;7.77;100.00;101500.28;5240088;28;20041;-47
2024/01/23 03:05:29;;;;;;;8.57;1.90;;;8.00;99.90;;;7.76;100.00;101492.38;5240491;28;20053;-46
2024/01/23 03:08:02;;;;;;;6.00;1.45;;;8.00;99.90;;;7.78;100.00;101493.41;5246025;28;20033;-46
2024/01/23 03:10:36;;;;;;;5.20;1.05;;;8.00;99.90;;;7.78;100.00;101499.47;5236500;28;20602;-46
2024/01/23 03:13:08;;;;;;;5.85;1.23;;;8.00;99.90;;;7.80;100.00;101502.16;5241299;28;20037;-47
2024/01/23 03:15:41;;;;;;;12.43;1.67;;;8.00;99.90;;;7.79;100.00;101496.06;5254858;28;20041;-47
2024/01/23 03:18:13;;;;;;;8.90;0.95;;;8.00;99.90;;;7.79;100.00;101514.25;5241226;28;20045;-47
2024/01/23 03:20:46;;;;;;;9.93;1.30;;;8.00;99.90;;;7.79;100.00;101509.03;5230517;28;20494;-46
2024/01/23 03:23:18;;;;;;;4.55;0.95;;;8.00;99.90;;;7.81;100.00;101522.09;5234863;28;20406;-46
2024/01/23 03:25:52;;;;;;;12.27;1.60;;;8.00;99.90;;;7.83;100.00;101521.41;5241040;28;20045;-46
2024/01/23 03:28:27;;;;;;;3.38;1.20;;;8.00;99.90;;;7.86;100.00;101525.88;5245392;28;20041;-46
2024/01/23 03:31:00;;;;;;;1.13;0.77;;;8.00;99.90;;;7.86;100.00;101533.66;5243687;28;20135;-46
2024/01/23 03:33:33;;;;;;;10.18;1.33;;;8.00;99.90;;;7.86;100.00;101542.34;5242848;28;20044;-47
2024/01/23 03:36:07;;;;;;;6.82;1.35;;;8.00;99.90;;;7.88;100.00;101525.13;5242142;28;20094;-47
2024/01/23 03:38:39;;;;;;;15.07;1.75;;;8.00;99.90;;;7.91;100.00;101533.94;5243279;28;20441;-47
2024/01/23 03:41:13;;;;;;;2.53;0.93;;;8.00;99.90;;;7.91;100.00;101529.63;5245234;28;20468;-47
2024/01/23 03:43:45;;;;;;;7.50;1.17;;;8.10;99.90;;;7.91;100.00;101539.13;5243771;28;20048;-46
2024/01/23 03:46:18;;;;;;;3.17;1.40;;;8.00;99.90;;;7.93;100.00;101553.97;5237888;28;20518;-47
2024/01/23 03:48:50;;;;;;;6.93;1.08;;;8.10;99.90;;;7.96;100.00;101553.25;5243514;28;20048;-46
2024/01/23 03:51:22;;;;;;;5.45;1.13;;;8.10;99.90;;;7.94;100.00;101549.66;5243373;28;20052;-47
2024/01/23 03:53:55;;;;;;;5.82;1.45;;;8.10;99.90;;;7.96;100.00;101556.75;5232555;28;20036;-47
2024/01/23 03:56:32;;;;;;;2.15;0.82;;;8.10;99.90;;;7.98;100.00;101569.81;5246645;28;20471;-47
2024/01/23 03:59:04;;;;;;;5.35;1.58;;;8.10;99.90;;;7.99;100.00;101564.69;5237829;28;20507;-47
2024/01/23 04:01:37;;;;;;;7.72;1.15;;;8.10;99.90;;;7.99;100.00;101563.81;5243844;28;20056;-47
2024/01/23 04:04:10;;;;;;;9.40;1.50;;;8.10;99.90;;;7.96;100.00;101569.72;5239339;28;20052;-46
2024/01/23 04:06:42;;;;;;;1.70;0.80;;;8.10;99.90;;;7.99;100.00;101576.78;5243859;28;20048;-47
2024/01/23 04:09:14;;;;;;;6.07;0.82;;;8.10;99.90;;;7.95;100.00;101577.41;5238063;28;20059;-46
2024/01/23 04:11:51;;;;;;;6.72;0.75;;;8.10;99.90;;;7.93;100.00;101586.81;5241202;28;20045;-46
2024/01/23 04:14:24;;;;;;;7.53;1.30;;;8.10;99.90;;;7.91;100.00;101598.81;5232774;28;20057;-47
2024/01/23 04:16:56;;;;;;;1.80;1.05;;;8.10;99.90;;;7.88;100.00;101607.31;5242399;28;20385;-48
2024/01/23 04:19:29;;;;;;;11.45;1.48;;;8.10;99.90;;;7.86;100.00;101608.94;5243787;28;20515;-48
2024/01/23 04:22:01;;;;;;;8.32;1.60;;;8.10;99.90;;;7.86;100.00;101615.03;5239169;28;20132;-46
2024/01/23 04:24:37;;;;;;;4.93;1.02;;;8.00;99.90;;;7.86;100.00;101621.91;5241751;28;20048;-47
2024/01/23 04:27:10;;;;;;;4.22;0.98;;;8.00;99.90;;;7.85;100.00;101634.00;5233435;28;20070;-47
2024/01/23 04:29:43;;;;;;;14.15;1.88;;;8.00;99.90;;;7.85;100.00;101649.56;5237222;28;20178;-47
2024/01/23 04:32:15;;;;;;;7.20;1.60;;;8.00;99.90;;;7.85;100.00;101646.09;5243986;28;20044;-47
2024/01/23 04:34:47;;;;;;;4.53;1.80;;;8.00;99.90;;;7.84;100.00;101647.78;5236249;28;20067;-47
2024/01/23 04:37:22;;;;;;;6.35;1.48;;;8.00;99.90;;;7.84;100.00;101647.78;5239998;28;20063;-47
2024/01/23 04:39:54;;;;;;;11.88;1.88;;;8.00;99.90;;;7.82;100.00;101649.41;5258439;28;20051;-47
2024/01/23 04:42:28;;;;;;;9.32;1.60;;;8.00;99.90;;;7.81;100.00;101652.78;5234558;28;20049;-47
2024/01/23 04:45:00;;;;;;;4.05;1.33;;;8.00;99.90;;;7.79;100.00;101669.09;5249405;28;20036;-47
2024/01/23 04:47:33;;;;;;;10.73;1.38;;;8.00;99.90;;;7.81;100.00;101673.56;5243238;28;20499;-47
2024/01/23 04:50:07;;;;;;;6.43;1.45;;;7.90;99.90;;;7.83;100.00;101674.56;5243953;28;20091;-46
2024/01/23 04:52:39;;;;;;;16.30;1.92;;;8.00;99.90;;;7.86;100.00;101672.13;5237611;28;20106;-46
2024/01/23 04:55:12;;;;;;;10.63;1.73;;;8.00;99.90;;;7.91;100.00;101675.00;5240589;28;20051;-47
2024/01/23 04:57:45;;;;;;;10.13;1.17;;;8.00;99.90;;;7.95;100.00;101696.84;5243005;28;20055;-47
2024/01/23 05:00:19;;;;;;;10.27;1.42;;;8.10;99.90;;;7.95;100.00;101689.06;5255527;28;20048;-46
2024/01/23 05:02:51;;;;;;;14.10;1.83;;;8.10;99.90;;;7.96;100.00;101701.25;5237207;28;20556;-47
2024/01/23 05:05:24;;;;;;;3.95;1.35;;;8.10;99.90;;;7.95;100.00;101695.13;5243724;28;20044;-46
2024/01/23 05:07:56;;;;;;;11.43;1.27;;;8.10;99.90;;;7.97;100.00;101711.72;5238559;28;20554;-46
2024/01/23 05:10:28;;;;;;;8.05;1.10;;;8.10;99.90;;;7.94;100.00;101710.63;5240506;28;20048;-47
2024/01/23 05:13:02;;;;;;;8.15;2.03;;;8.10;99.90;;;7.91;100.00;101731.22;5234879;28;20067;-46
2024/01/23 05:15:34;;;;;;;3.40;0.70;;;8.10;99.90;;;7.91;100.00;101726.94;5238377;28;20053;-47
2024/01/23 05:18:07;;;;;;;6.13;1.50;;;8.10;99.90;;;7.86;100.00;101742.22;5235406;28;20560;-46
2024/01/23 05:20:40;;;;;;;4.25;1.15;;;8.10;99.90;;;7.78;100.00;101748.66;5249036;28;20068;-47
2024/01/23 05:23:12;;;;;;;6.05;1.00;;;8.00;99.90;;;7.73;100.00;101757.84;5235002;28;20620;-46
2024/01/23 05:25:44;;;;;;;6.97;1.23;;;8.00;99.90;;;7.70;100.00;101756.78;5242656;28;20056;-47
2024/01/23 05:28:18;;;;;;;3.80;1.15;;;7.90;99.90;;;7.65;100.00;101747.81;5254843;28;20048;-47
2024/01/23 05:30:50;;;;;;;6.22;1.05;;;7.90;99.90;;;7.62;100.00;101764.06;5238939;28;20044;-47
2024/01/23 05:33:23;;;;;;;15.85;1.58;;;7.80;99.90;;;7.55;100.00;101777.47;5241884;28;20071;-46
2024/01/23 05:35:56;;;;;;;9.95;1.42;;;7.80;99.90;;;7.50;100.00;101789.28;5237698;28;20044;-47
2024/01/23 05:38:28;;;;;;;13.25;1.58;;;7.70;99.90;;;7.47;100.00;101796.84;5255647;28;20045;-47
2024/01/23 05:41:01;;;;;;;4.10;1.15;;;7.70;99.90;;;7.44;100.00;101801.88;5228352;28;20049;-47
2024/01/23 05:43:35;;;;;;;7.28;1.33;;;7.70;99.90;;;7.40;100.00;101807.66;5240364;28;20049;-47
2024/01/23 05:46:07;;;;;;;5.70;1.05;;;7.60;99.90;;;7.37;100.00;101812.63;5232747;28;20059;-47
2024/01/23 05:48:39;;;;;;;4.55;1.17;;;7.60;99.90;;;7.33;100.00;101814.16;5232042;28;20041;-47
2024/01/23 05:51:12;;;;;;;5.57;1.80;;;7.60;99.90;;;7.28;100.00;101815.53;5244895;28;20064;-46
2024/01/23 05:53:44;;;;;;;9.38;2.03;;;7.50;99.90;;;7.24;100.00;101822.25;5233470;28;20061;-47
2024/01/23 05:56:16;;;;;;;10.07;1.30;;;7.50;99.90;;;7.20;100.00;101835.81;5241274;28;20522;-46
2024/01/23 05:58:50;;;;;;;7.35;1.42;;;7.40;99.90;;;7.18;100.00;101837.41;5237784;28;20052;-46
2024/01/23 06:01:23;;;;;;;8.02;1.55;;;7.40;99.90;;;7.17;100.00;101835.63;5247420;28;20063;-46
2024/01/23 06:03:55;;;;;;;3.95;1.08;;;7.40;99.90;;;7.13;100.00;101853.47;5237076;28;20428;-46
2024/01/23 06:06:29;;;;;;;13.45;1.50;;;7.40;99.90;;;7.11;100.00;101855.03;5245173;28;20048;-47
2024/01/23 06:09:02;;;;;;;4.32;0.85;;;7.30;99.90;;;7.10;100.00;101853.25;5239017;28;20470;-47
2024/01/23 06:11:35;;;;;;;5.45;1.20;;;7.30;99.90;;;7.10;100.00;101859.31;5239135;28;20515;-47
2024/01/23 06:14:09;;;;;;;6.97;1.38;;;7.30;99.90;;;7.10;100.00;101869.69;5238172;28;20403;-47
2024/01/23 06:16:41;;;;;;;7.40;1.02;;;7.30;99.90;;;7.11;100.00;101866.34;5257216;28;20047;-47
2024/01/23 06:19:14;;;;;;;9.88;1.40;;;7.30;99.90;;;7.08;100.00;101871.31;5230276;28;20045;-47
2024/01/23 06:21:46;;;;;;;5.38;1.50;;;7.30;99.90;;;7.06;100.00;101883.28;5230659;28;20496;-47
2024/01/23 06:24:19;;;;;;;5.85;1.48;;;7.20;99.90;;;7.06;100.00;101885.88;5244175;28;20072;-46
2024/01/23 06:26:51;;;;;;;2.65;1.27;;;7.20;99.90;;;7.06;100.00;101889.34;5236078;28;20044;-46
2024/01/23 06:29:25;;;;;;;4.03;1.40;;;7.30;99.90;;;7.06;100.00;101891.06;5241765;28;20039;-47
2024/01/23 06:31:58;;;;;;;8.10;2.00;;;7.20;99.90;;;7.06;100.00;101891.06;5241545;28;20060;-46
2024/01/23 06:34:31;;;;;;;10.02;0.90;;;7.20;99.90;;;7.01;100.00;101895.03;5234589;28;20135;-46
2024/01/23 06:37:03;;;;;;;8.77;1.55;;;7.20;99.90;;;6.97;100.00;101903.38;5249928;28;20048;-47
2024/01/23 06:39:35;;;;;;;3.67;0.60;;;7.20;99.90;;;6.94;100.00;101890.25;5240304;28;20082;-47
2024/01/23 06:42:08;;;;;;;14.45;1.60;;;7.10;99.90;;;6.91;100.00;101906.50;5237974;28;20502;-46
2024/01/23 06:44:42;;;;;;;9.57;1.05;;;7.10;99.90;;;6.88;100.00;101900.19;5240859;28;20419;-46
2024/01/23 06:47:14;;;;;;;6.38;1.42;;;7.10;99.90;;;6.87;100.00;101901.00;5230405;28;20460;-47
2024/01/23 06:49:46;;;;;;;6.55;0.77;;;7.10;99.90;;;6.86;100.00;101914.75;5240283;28;20048;-47
2024/01/23 06:52:19;;;;;;;9.07;1.98;;;7.10;99.90;;;6.83;100.00;101915.44;5240719;28;20052;-48
2024/01/23 06:54:51;;;;;;;7.22;1.17;;;7.00;99.90;;;6.85;100.00;101918.16;5239617;28;20496;-46
2024/01/23 06:57:24;;;;;;;5.38;0.90;;;7.00;99.90;;;6.86;100.00;101923.44;5240508;28;20059;-47
2024/01/23 06:59:57;;;;;;;6.40;1.77;;;7.00;99.90;;;6.87;100.00;101921.72;5239660;28;20507;-47
2024/01/23 07:02:30;;;;;;;10.10;1.27;;;7.00;99.90;;;6.89;100.00;101920.13;5232011;28;20040;-47
2024/01/23 07:05:07;;;;;;;6.63;1.50;;;7.10;99.90;;;6.84;100.00;101921.50;5258632;28;20048;-46
2024/01/23 07:07:39;;;;;;;3.42;0.93;;;7.00;99.90;;;6.84;100.00;101929.28;5231618;28;20053;-47
2024/01/23 07:10:11;;;;;;;7.85;1.80;;;7.00;99.90;;;6.82;100.00;101938.66;5239671;28;20033;-47
2024/01/23 07:12:44;;;;;;;6.72;1.23;;;7.00;99.90;;;6.82;100.00;101949.03;5239769;28;20052;-47
2024/01/23 07:15:18;;;;;;;9.48;1.33;;;7.00;99.90;;;6.79;100.00;101950.63;5235106;28;20055;-46
2024/01/23 07:17:51;;;;;;;5.90;1.35;;;7.00;99.90;;;6.79;100.00;101950.63;5232977;28;20041;-47
2024/01/23 07:20:24;;;;;;;6.18;1.35;;;7.00;99.90;;;6.82;100.00;101964.56;5228439;28;20060;-47
2024/01/23 07:22:56;;;;;;;3.53;1.10;;;7.00;99.90;;;6.84;100.00;101969.06;5233072;28;20045;-46
2024/01/23 07:25:28;;;;;;;8.93;1.40;;;7.00;99.90;;;6.87;100.00;101968.38;5237711;28;20045;-47
2024/01/23 07:28:01;;;;;;;5.95;1.05;;;7.10;99.90;;;6.86;100.00;101967.50;5244004;28;20434;-47
2024/01/23 07:30:34;;;;;;;6.68;1.25;;;7.10;99.90;;;6.86;100.00;101961.41;5241500;28;20059;-46
2024/01/23 07:33:07;;;;;;;11.13;1.13;;;7.00;99.90;;;6.86;100.00;101969.19;5233756;28;20876;-47
2024/01/23 07:35:40;;;;;;;0.98;0.73;;;7.00;99.90;;;6.86;100.00;101972.69;5256974;28;20053;-46
2024/01/23 07:38:12;;;;;;;6.35;1.35;;;7.00;99.90;;;6.84;100.00;101978.53;5244587;28;20083;-46
2024/01/23 07:40:44;;;;;;;10.93;1.38;;;7.00;99.90;;;6.82;100.00;101981.03;5241629;28;20076;-47
2024/01/23 07:43:18;;;;;;;13.13;1.60;;;7.00;99.90;;;6.85;100.00;101970.00;5239751;28;20128;-46
2024/01/23 07:45:51;;;;;;;7.65;2.03;;;7.00;99.90;;;6.86;100.00;101987.34;5259808;28;20507;-46
2024/01/23 07:48:24;;;;;;;7.13;0.90;;;7.10;99.90;;;6.90;100.00;101994.50;5245021;28;20047;-46
2024/01/23 07:50:59;;;;;;;6.07;0.93;;;7.00;99.90;;;6.93;100.00;101984.34;5243549;28;20047;-46
2024/01/23 07:53:32;;;;;;;7.40;1.52;;;7.10;99.90;;;6.97;100.00;101988.94;5245216;28;20036;-46
2024/01/23 07:56:06;;;;;;;2.03;1.23;;;7.10;99.90;;;6.98;100.00;101993.34;5244639;28;20063;-45
2024/01/23 07:58:38;;;;;;;9.43;1.60;;;7.10;99.90;;;7.00;100.00;101996.94;5239988;28;20052;-45
2024/01/23 08:01:12;;;;;;;2.95;0.75;;;7.10;99.90;;;7.03;100.00;101997.13;5237686;28;20086;-46
2024/01/23 08:03:44;;;;;;;2.72;0.80;;;7.20;99.90;;;7.06;100.00;102003.44;5247276;28;20076;-45
2024/01/23 08:06:17;;;;;;;2.60;1.25;;;7.20;99.90;;;7.11;100.00;102008.03;5245698;28;20070;-46
2024/01/23 08:08:51;;;;;;;6.65;1.38;;;7.20;99.90;;;7.14;100.00;102019.53;5236145;28;20052;-46
2024/01/23 08:11:23;;;;;;;8.45;1.30;;;7.30;99.90;;;7.19;100.00;102030.22;5236782;28;20033;-46
2024/01/23 08:13:55;;;;;;;2.75;1.50;;;7.30;99.90;;;7.23;100.00;102038.28;5241582;28;20064;-46
2024/01/23 08:16:29;;;;;;;3.53;1.10;;;7.30;99.90;;;7.27;100.00;102031.63;5246869;28;20095;-46
2024/01/23 08:19:05;;;;;;;7.50;1.58;;;7.30;99.90;;;7.33;100.00;102040.72;5240774;28;20642;-46
2024/01/23 08:21:38;;;;;;;8.55;1.55;;;7.40;99.90;;;7.39;100.00;102031.56;5236679;28;20053;-46
2024/01/23 08:24:10;;;;;;;5.00;1.77;;;7.50;99.90;;;7.44;100.00;102035.38;5254893;28;20052;-46
2024/01/23 08:26:43;;;;;;;1.95;0.82;;;7.50;99.90;;;7.46;100.00;102037.25;5236903;28;20048;-46
2024/01/23 08:29:15;;;;;;;6.18;1.13;;;7.50;99.90;;;7.52;100.00;102044.56;5235253;28;20052;-45
2024/01/23 08:31:49;;;;;;;3.85;0.88;;;7.60;99.90;;;7.53;100.00;102038.56;5242881;28;20576;-46
2024/01/23 08:34:22;;;;;;;6.15;1.45;;;7.60;99.90;;;7.53;100.00;102038.56;5239480;28;20052;-45
2024/01/23 08:36:54;;;;;;;4.15;1.13;;;7.60;99.90;;;7.53;100.00;102038.56;5242382;28;20049;-46
2024/01/23 08:39:27;;;;;;;5.97;1.48;;;7.60;99.90;;;7.55;100.00;102045.63;5237598;28;20048;-46
2024/01/23 08:41:59;;;;;;;5.43;1.42;;;7.60;99.90;;;7.59;100.00;102055.44;5242533;28;20059;-47
2024/01/23 08:44:31;;;;;;;11.48;2.53;;;7.70;99.90;;;7.63;100.00;102059.16;5240953;28;20110;-46
2024/01/23 08:47:05;;;;;;;12.50;1.67;;;7.70;99.90;;;7.67;100.00;102063.72;5237789;28;20044;-47
2024/01/23 08:49:38;;;;;;;4.82;1.00;;;7.70;99.90;;;7.75;100.00;102065.13;5244321;28;20036;-46
2024/01/23 08:52:10;;;;;;;5.30;1.10;;;7.80;99.90;;;7.89;100.00;102066.97;5243532;28;20041;-45
2024/01/23 08:54:42;;;;;;;8.63;1.00;;;7.90;99.90;;;7.95;100.00;102073.34;5241657;28;20049;-47
2024/01/23 08:57:17;;;;;;;3.63;1.15;;;8.00;99.90;;;7.93;100.00;102068.03;5236618;28;20739;-45
2024/01/23 08:59:50;;;;;;;6.38;1.42;;;8.00;99.90;;;7.93;100.00;102074.94;5237548;28;20048;-46
2024/01/23 09:02:23;;;;;;;6.78;1.33;;;8.00;99.90;;;7.94;100.00;102075.03;5233650;28;20063;-46
2024/01/23 09:04:59;;;;;;;7.05;1.17;;;8.00;99.90;;;7.94;100.00;102069.84;5240837;28;20122;-54
2024/01/23 09:07:31;;;;;;;2.88;1.15;;;8.00;99.90;;;7.96;100.00;102078.66;5238660;28;20044;-46
2024/01/23 09:10:05;;;;;;;5.82;1.27;;;8.00;99.90;;;7.98;100.00;102079.66;5243380;28;20044;-46
2024/01/23 09:12:37;;;;;;;7.50;1.20;;;8.00;99.90;;;8.03;100.00;102079.94;5238830;28;20044;-46
2024/01/23 09:15:10;;;;;;;6.32;1.25;;;8.10;99.90;;;8.07;100.00;102087.13;5241062;28;20048;-46
2024/01/23 09:17:44;;;;;;;8.32;1.55;;;8.10;99.90;;;8.11;100.00;102091.72;5244271;28;20110;-46
2024/01/23 09:20:17;;;;;;;5.07;1.05;;;8.20;99.90;;;8.14;100.00;102103.19;5232337;28;20037;-46
2024/01/23 09:22:50;;;;;;;8.55;1.63;;;8.20;99.90;;;8.19;100.00;102103.50;5241292;28;20052;-46
2024/01/23 09:25:23;;;;;;;9.75;1.35;;;8.20;99.90;;;8.26;100.00;102097.91;5239071;28;20052;-46
2024/01/23 09:27:56;;;;;;;6.97;1.00;;;8.30;99.90;;;8.32;100.00;102103.50;5242644;28;20055;-45
2024/01/23 09:30:28;;;;;;;10.95;1.38;;;8.30;99.90;;;8.43;100.00;102109.44;5235016;28;20059;-46
2024/01/23 09:33:05;;;;;;;4.03;0.80;;;8.40;99.90;;;8.60;100.00;102107.91;5241042;28;20103;-46
2024/01/23 09:35:38;;;;;;;10.88;1.75;;;8.50;99.90;;;8.77;100.00;102109.88;5237993;28;20067;-45
2024/01/23 09:38:10;;;;;;;3.72;1.20;;;8.70;99.90;;;8.90;100.00;102115.03;5240109;28;20094;-46
2024/01/23 09:40:43;;;;;;;8.10;1.30;;;8.80;99.90;;;9.04;100.00;102122.78;5230519;28;20448;-46
2024/01/23 09:43:19;;;;;;;5.93;1.08;;;8.90;99.90;;;9.18;100.00;102127.16;5240215;28;20468;-46
2024/01/23 09:45:53;;;;;;;10.98;1.50;;;9.00;99.90;;;9.30;100.00;102130.50;5239344;28;20060;-46
2024/01/23 09:48:27;;;;;;;1.73;0.82;;;9.20;99.90;;;9.39;100.00;102122.34;5239687;28;20059;-46
2024/01/23 09:51:02;;;;;;;6.57;1.27;;;9.30;99.90;;;9.50;100.00;102124.78;5239718;28;20045;-46
2024/01/23 09:53:37;;;;;;;14.25;1.23;;;9.40;99.90;;;9.62;100.00;102123.75;5237252;28;20057;-46
2024/01/23 09:56:10;;;;;;;6.07;1.27;;;9.50;99.90;;;9.72;100.00;102126.09;5255235;28;20444;-47
2024/01/23 09:58:43;;;;;;;7.88;1.13;;;9.60;99.90;;;9.85;100.00;102125.13;5240427;28;20056;-47
2024/01/23 10:01:18;;;;;;;4.25;0.82;;;9.70;99.90;;;9.97;100.00;102125.81;5240435;28;20055;-46
2024/01/23 10:03:56;;;;;;;8.05;1.20;;;9.80;99.90;;;10.08;100.00;102114.31;5240314;28;20049;-46
2024/01/23 10:06:28;;;;;;;8.50;1.08;;;9.90;99.90;;;10.19;100.00;102117.53;5239951;28;20037;-46
2024/01/23 10:09:01;;;;;;;8.02;1.42;;;10.00;99.90;;;10.30;100.00;102116.44;5255017;28;20407;-46
2024/01/23 10:11:35;;;;;;;4.15;1.02;;;10.10;99.90;;;10.40;100.00;102133.53;5236131;28;20069;-47
2024/01/23 10:14:09;;;;;;;9.05;1.33;;;10.20;99.90;;;10.50;100.00;102131.53;5237655;28;20060;-46
2024/01/23 10:16:42;;;;;;;7.78;1.30;;;10.30;99.90;;;10.62;100.00;102130.41;5232975;28;20132;-47
2024/01/23 10:19:19;;;;;;;7.20;1.30;;;10.40;99.90;;;10.72;100.00;102132.72;5242658;28;20480;-46
2024/01/23 10:21:55;;;;;;;4.05;0.90;;;10.50;99.90;;;10.78;100.00;102126.13;5234875;28;20045;-46
2024/01/23 10:24:30;;;;;;;5.97;1.08;;;10.60;99.90;;;10.84;100.00;102122.97;5242404;28;20075;-46
2024/01/23 10:27:02;;;;;;;;;;;10.70;99.90;;;10.91;100.00;102125.09;5252238;28;20106;-46
2024/01/23 10:29:35;;;;;;;10.15;1.40;;;10.70;99.90;;;10.95;100.00;102128.75;5239677;28;19981;-46
2024/01/23 10:32:09;;;;;;;11.73;0.93;;;10.80;99.90;;;10.88;100.00;102135.34;5239029;28;20045;-46
2024/01/23 10:34:44;;;;;;;7.93;0.95;;;10.80;99.90;;;10.79;100.00;102137.47;5242352;28;20059;-47
2024/01/23 10:37:16;;;;;;;;;;;10.70;99.90;;;10.69;100.00;102137.75;5241614;28;20510;-46
2024/01/23 10:39:49;;;;;;;8.93;1.20;;;10.60;99.90;;;10.63;100.00;102142.63;5234369;28;19935;-47
2024/01/23 10:42:22;;;;;;;6.80;1.20;;;10.60;99.90;;;10.56;100.00;102149.22;5258910;28;20053;-46